Time;durP1;ratioP1;P1;durP2;ratioP2;P2;SDS_P1;SDS_P2;PMS_P1;PMS_P2;Temp;Humidity;BMP_temperature;BMP_pressure;BME280_temperature;BME280_humidity;BME280_pressure;Samples;Min_cycle;Max_cycle;Signal;HPM_P1;HPM_P2
2022/11/02 00:00:34;;;;;;;;;;;;;;;10.70;87.46;96847.72;4977754;28;20304;-79
2022/11/02 00:03:01;;;;;;;;;;;;;;;10.66;87.94;96853.00;4977501;28;19960;-78
2022/11/02 00:05:29;;;;;;;;;;;;;;;10.68;88.29;96856.19;4996423;28;20451;-77
2022/11/02 00:07:55;;;;;;;;;;;;;;;10.67;88.42;96849.16;4978012;28;19925;-77
2022/11/02 00:10:22;;;;;;;;;;;;;;;10.67;88.35;96851.88;4976809;28;20393;-77
2022/11/02 00:12:49;;;;;;;;;;;;;;;10.65;88.38;96848.66;4977873;28;20014;-77
2022/11/02 00:15:15;;;;;;;;;;;;;;;10.64;88.46;96852.47;4976479;28;19926;-77
2022/11/02 00:17:46;;;;;;;;;;;;;;;10.64;88.43;96854.38;4977144;28;19922;-77
2022/11/02 00:20:14;;;;;;;;;;;;;;;10.62;88.15;96851.19;4976853;28;19990;-77
2022/11/02 00:22:41;;;;;;;;;;;;;;;10.58;87.98;96856.41;4977638;28;20280;-76
2022/11/02 00:25:11;;;;;;;;;;;;;;;10.54;87.53;96855.41;4976234;28;20411;-77
2022/11/02 00:27:37;;;;;;;;;;;;;;;10.50;87.94;96859.88;4977154;28;19922;-76
2022/11/02 00:30:04;;;;;;;;;;;;;;;10.46;88.20;96864.31;4975865;28;19969;-77
2022/11/02 00:32:31;;;;;;;;;;;;;;;10.43;88.70;96859.47;4976325;28;19929;-78
2022/11/02 00:34:58;;;;;;;;;;;;;;;10.42;88.61;96863.31;4976500;28;20029;-77
2022/11/02 00:37:25;;;;;;;;;;;;;;;10.39;88.71;96864.72;4976229;28;19996;-77
2022/11/02 00:39:51;;;;;;;;;;;;;;;10.39;88.84;96859.28;4976028;28;19922;-77
2022/11/02 00:42:18;;;;;;;;;;;;;;;10.39;89.01;96869.38;4976104;28;19933;-77
2022/11/02 00:44:45;;;;;;;;;;;;;;;10.42;88.62;96874.19;4975415;28;19964;-77
2022/11/02 00:47:11;;;;;;;;;;;;;;;10.39;88.36;96874.81;4975105;28;19922;-77
2022/11/02 00:49:38;;;;;;;;;;;;;;;10.39;88.08;96874.81;4976337;28;19953;-78
2022/11/02 00:52:06;;;;;;;;;;;;;;;10.34;88.30;96866.75;4975722;28;19922;-78
2022/11/02 00:54:32;;;;;;;;;;;;;;;10.34;88.44;96872.19;4976721;28;19922;-78
2022/11/02 00:56:59;;;;;;;;;;;;;;;10.32;88.69;96863.50;4977201;28;19922;-77
2022/11/02 00:59:25;;;;;;;;;;;;;;;10.33;89.01;96865.94;4975922;28;19922;-77
2022/11/02 01:01:51;;;;;;;;;;;;;;;10.34;88.93;96861.31;4976828;28;20017;-78
2022/11/02 01:04:18;;;;;;;;;;;;;;;10.28;87.59;96865.22;4976774;28;19954;-77
2022/11/02 01:06:45;;;;;;;;;;;;;;;10.26;87.59;96864.72;4976771;28;19928;-78
2022/11/02 01:09:14;;;;;;;;;;;;;;;10.23;87.62;96865.28;4976121;28;20045;-78
2022/11/02 01:11:41;;;;;;;;;;;;;;;10.18;87.75;96863.50;4976846;28;19928;-77
2022/11/02 01:14:08;;;;;;;;;;;;;;;10.14;88.28;96868.75;4975609;28;20005;-78
2022/11/02 01:16:34;;;;;;;;;;;;;;;10.12;88.15;96870.94;4976457;28;19926;-77
2022/11/02 01:19:01;;;;;;;;;;;;;;;10.10;88.36;96856.84;4976710;28;20439;-78
2022/11/02 01:21:29;;;;;;;;;;;;;;;10.06;88.57;96858.53;4995552;28;20377;-78
2022/11/02 01:23:56;;;;;;;;;;;;;;;10.04;88.55;96868.94;4995245;28;20465;-78
2022/11/02 01:26:23;;;;;;;;;;;;;;;10.04;88.55;96866.22;4994677;28;19930;-77
2022/11/02 01:28:53;;;;;;;;;;;;;;;10.00;88.46;96867.13;4995374;28;20012;-78
2022/11/02 01:31:19;;;;;;;;;;;;;;;9.92;88.40;96866.72;4979973;28;20612;-78
2022/11/02 01:33:46;;;;;;;;;;;;;;;9.89;88.59;96871.94;4980381;28;19928;-77
2022/11/02 01:36:13;;;;;;;;;;;;;;;9.86;88.49;96869.81;4980032;28;19922;-78
2022/11/02 01:38:39;;;;;;;;;;;;;;;9.81;88.78;96869.91;4979385;28;20388;-77
2022/11/02 01:41:06;;;;;;;;;;;;;;;9.81;88.57;96875.34;4980042;28;19922;-78
2022/11/02 01:43:35;;;;;;;;;;;;;;;9.82;88.65;96872.34;4976045;28;19922;-78
2022/11/02 01:46:05;;;;;;;;;;;;;;;9.84;88.76;96875.56;4976276;28;20496;-78
2022/11/02 01:48:33;;;;;;;;;;;;;;;9.86;88.46;96883.41;4975220;28;20017;-78
2022/11/02 01:51:01;;;;;;;;;;;;;;;9.85;87.79;96884.53;4972877;28;19922;-78
2022/11/02 01:53:28;;;;;;;;;;;;;;;9.83;87.62;96881.31;4974459;28;19961;-78
2022/11/02 01:55:55;;;;;;;;;;;;;;;9.83;87.82;96878.59;4975947;28;20349;-78
2022/11/02 01:58:22;;;;;;;;;;;;;;;9.82;88.37;96876.97;4975553;28;19993;-78
2022/11/02 02:00:50;;;;;;;;;;;;;;;9.81;88.49;96880.78;4976515;28;19922;-78
2022/11/02 02:03:18;;;;;;;;;;;;;;;9.79;88.80;96880.28;4975308;28;20296;-78
2022/11/02 02:05:46;;;;;;;;;;;;;;;9.80;89.17;96887.34;4976082;28;19969;-77
2022/11/02 02:08:16;;;;;;;;;;;;;;;9.79;89.03;96883.81;4976498;28;19932;-78
2022/11/02 02:10:42;;;;;;;;;;;;;;;9.77;89.30;96879.78;4980098;28;19922;-77
2022/11/02 02:13:08;;;;;;;;;;;;;;;9.77;89.24;96877.06;4977997;28;20411;-77
2022/11/02 02:15:40;;;;;;;;;;;;;;;9.74;89.36;96880.38;4982285;28;19954;-77
2022/11/02 02:18:11;;;;;;;;;;;;;;;9.75;89.38;96876.56;4979597;28;19950;-76
2022/11/02 02:20:46;;;;;;;;;;;;;;;9.76;89.50;96879.00;4975084;28;19922;-78
2022/11/02 02:23:27;;;;;;;;;;;;;;;9.77;89.33;96875.16;4974952;28;19996;-78
2022/11/02 02:26:09;;;;;;;;;;;;;;;9.76;89.42;96878.16;4974273;28;20000;-78
2022/11/02 02:28:41;;;;;;;;;;;;;;;9.74;89.57;96875.75;4994242;28;19922;-77
2022/11/02 02:31:12;;;;;;;;;;;;;;;9.76;89.48;96880.88;4974226;28;19930;-77
2022/11/02 02:33:43;;;;;;;;;;;;;;;9.78;89.66;96881.41;4974047;28;19921;-77
2022/11/02 02:36:13;;;;;;;;;;;;;;;9.77;89.26;96880.59;4973495;28;19928;-77
2022/11/02 02:38:42;;;;;;;;;;;;;;;9.71;89.32;96876.38;4973873;28;19922;-76
2022/11/02 02:41:11;;;;;;;;;;;;;;;9.69;89.34;96886.72;4973419;28;20399;-76
2022/11/02 02:43:42;;;;;;;;;;;;;;;9.64;89.56;96890.31;4971434;28;19977;-77
2022/11/02 02:46:10;;;;;;;;;;;;;;;9.67;89.35;96887.03;4973016;28;20008;-78
2022/11/02 02:48:38;;;;;;;;;;;;;;;9.67;89.45;96887.03;4973679;28;20365;-77
2022/11/02 02:51:08;;;;;;;;;;;;;;;9.67;89.70;96892.47;4973015;28;19928;-77
2022/11/02 02:53:38;;;;;;;;;;;;;;;9.72;90.99;96891.56;4973865;28;19929;-77
2022/11/02 02:56:06;;;;;;;;;;;;;;;9.79;91.85;96891.16;4972861;28;19945;-78
2022/11/02 02:58:36;;;;;;;;;;;;;;;9.87;92.71;96887.78;4973712;28;19922;-77
2022/11/02 03:01:05;;;;;;;;;;;;;;;9.93;92.31;96889.28;4972921;28;19922;-78
2022/11/02 03:03:34;;;;;;;;;;;;;;;9.93;92.01;96883.84;4973552;28;19929;-77
2022/11/02 03:06:06;;;;;;;;;;;;;;;9.96;91.12;96896.03;4972948;28;19922;-77
2022/11/02 03:08:35;;;;;;;;;;;;;;;9.89;91.75;96893.72;4973432;28;19922;-77
2022/11/02 03:11:05;;;;;;;;;;;;;;;9.99;92.24;96898.16;4972628;28;19928;-78
2022/11/02 03:13:36;;;;;;;;;;;;;;;10.08;92.19;96896.34;4956048;28;19973;-77
2022/11/02 03:16:04;;;;;;;;;;;;;;;10.15;91.89;96902.19;4973135;28;19929;-78
2022/11/02 03:18:36;;;;;;;;;;;;;;;10.12;91.76;96908.22;4973463;28;20550;-78
2022/11/02 03:21:07;;;;;;;;;;;;;;;9.99;93.43;96904.41;4971997;28;19926;-78
2022/11/02 03:23:35;;;;;;;;;;;;;;;10.04;93.67;96907.03;4972451;28;19953;-77
2022/11/02 03:26:05;;;;;;;;;;;;;;;10.17;93.07;96917.09;4972193;28;19929;-77
2022/11/02 03:28:42;;;;;;;;;;;;;;;10.21;93.08;96906.44;4973251;28;19922;-77
2022/11/02 03:31:11;;;;;;;;;;;;;;;10.25;92.93;96912.13;4972347;28;20573;-77
2022/11/02 03:33:43;;;;;;;;;;;;;;;10.32;92.92;96923.41;4973298;28;20352;-77
2022/11/02 03:36:13;;;;;;;;;;;;;;;10.37;92.62;96924.09;4972368;28;19928;-76
2022/11/02 03:38:43;;;;;;;;;;;;;;;10.45;92.26;96928.06;4973467;28;19956;-76
2022/11/02 03:41:11;;;;;;;;;;;;;;;10.47;92.32;96925.03;4972616;28;20016;-78
2022/11/02 03:43:38;;;;;;;;;;;;;;;10.53;92.11;96924.59;4970605;28;20629;-76
2022/11/02 03:46:07;;;;;;;;;;;;;;;10.53;91.98;96935.50;4971328;28;19922;-78
2022/11/02 03:48:36;;;;;;;;;;;;;;;10.54;91.74;96937.09;4973257;28;19922;-76
2022/11/02 03:51:06;;;;;;;;;;;;;;;10.44;92.58;96943.59;4972443;28;19928;-78
2022/11/02 03:53:37;;;;;;;;;;;;;;;10.51;92.64;96948.63;4972552;28;20008;-76
2022/11/02 03:56:06;;;;;;;;;;;;;;;10.46;92.81;96948.72;4972305;28;19953;-76
2022/11/02 03:58:33;;;;;;;;;;;;;;;10.27;94.96;96948.00;4972427;28;19922;-77
2022/11/02 04:01:02;;;;;;;;;;;;;;;10.46;94.03;96948.72;4972500;28;19933;-77
2022/11/02 04:03:30;;;;;;;;;;;;;;;10.55;93.23;96955.06;4991290;28;19951;-78
2022/11/02 04:05:57;;;;;;;;;;;;;;;10.60;92.98;96956.91;4991780;28;20000;-76
2022/11/02 04:08:31;;;;;;;;;;;;;;;10.60;92.83;96954.97;4991670;28;19943;-77
2022/11/02 04:16:26;;;;;;;;;;;;;;;10.46;94.34;96959.63;4972116;28;20293;-76
2022/11/02 04:21:36;;;;;;;;;;;;;;;10.26;94.77;96974.41;4971962;28;20285;-77
2022/11/02 04:27:03;;;;;;;;;;;;;;;10.31;94.55;96976.22;4930802;29;19923;-77
2022/11/02 04:29:29;;;;;;;;;;;;;;;10.50;93.63;96971.53;4930860;29;20123;-76
2022/11/02 04:31:57;;;;;;;;;;;;;;;10.56;92.85;96962.13;4948161;28;19928;-77
2022/11/02 04:34:22;;;;;;;;;;;;;;;10.61;92.69;96959.31;4974478;28;19929;-77
2022/11/02 04:36:49;;;;;;;;;;;;;;;10.68;91.63;96964.34;4975871;28;19926;-76
2022/11/02 04:39:16;;;;;;;;;;;;;;;10.60;91.89;96960.44;4975552;28;20491;-77
2022/11/02 04:41:41;;;;;;;;;;;;;;;10.67;91.44;96968.19;4975282;28;19972;-77
2022/11/02 04:44:08;;;;;;;;;;;;;;;10.73;90.68;96969.69;4975219;28;19922;-77
2022/11/02 04:46:36;;;;;;;;;;;;;;;10.74;90.17;96967.75;4975542;28;20049;-77
2022/11/02 04:49:02;;;;;;;;;;;;;;;10.71;89.99;96958.31;4975176;28;20028;-78
2022/11/02 04:51:29;;;;;;;;;;;;;;;10.69;90.01;96961.31;4975996;28;19922;-77
2022/11/02 04:53:57;;;;;;;;;;;;;;;10.63;90.03;96953.56;4975732;28;20029;-77
2022/11/02 04:56:25;;;;;;;;;;;;;;;10.56;90.05;96945.78;4974567;28;19922;-77
2022/11/02 04:58:52;;;;;;;;;;;;;;;10.56;89.65;96945.78;4975463;28;20028;-77
2022/11/02 05:01:20;;;;;;;;;;;;;;;10.47;90.00;96939.44;4974550;28;19933;-78
2022/11/02 05:03:46;;;;;;;;;;;;;;;10.43;89.87;96930.25;4974933;28;19985;-77
2022/11/02 05:06:13;;;;;;;;;;;;;;;10.36;90.25;96929.88;4974821;28;20364;-77
2022/11/02 05:08:39;;;;;;;;;;;;;;;10.30;90.47;96923.72;4975111;28;19926;-78
2022/11/02 05:11:06;;;;;;;;;;;;;;;10.33;90.14;96925.00;4974545;28;19945;-77
2022/11/02 05:13:34;;;;;;;;;;;;;;;10.32;90.02;96929.66;4974856;28;20033;-77
2022/11/02 05:16:00;;;;;;;;;;;;;;;10.29;89.90;96929.47;4975378;28;20008;-77
2022/11/02 05:18:27;;;;;;;;;;;;;;;10.30;89.92;96931.88;4993965;28;19922;-76
2022/11/02 05:20:55;;;;;;;;;;;;;;;10.32;89.49;96931.56;4993993;28;19960;-77
2022/11/02 05:23:22;;;;;;;;;;;;;;;10.30;89.79;96936.53;4992989;28;19930;-78
2022/11/02 05:25:52;;;;;;;;;;;;;;;10.28;89.63;96925.09;4994238;28;19976;-77
2022/11/02 05:28:18;;;;;;;;;;;;;;;10.24;89.59;96932.28;4993877;28;20001;-78
2022/11/02 05:30:46;;;;;;;;;;;;;;;10.24;89.99;96937.72;4994252;28;19928;-78
2022/11/02 05:33:13;;;;;;;;;;;;;;;10.23;89.78;96946.94;4979607;28;19929;-77
2022/11/02 05:35:39;;;;;;;;;;;;;;;10.23;90.03;96936.88;4974564;28;19925;-77
2022/11/02 05:38:06;;;;;;;;;;;;;;;10.20;89.62;96938.28;4974238;28;19939;-77
2022/11/02 05:40:36;;;;;;;;;;;;;;;10.22;89.39;96950.78;4974098;28;19926;-77
2022/11/02 05:43:03;;;;;;;;;;;;;;;10.18;89.12;96956.84;4971181;28;20336;-78
2022/11/02 05:45:29;;;;;;;;;;;;;;;10.17;89.17;96960.66;4973150;28;19964;-77
2022/11/02 05:47:59;;;;;;;;;;;;;;;10.12;88.91;96968.91;4974167;28;20288;-78
2022/11/02 05:50:26;;;;;;;;;;;;;;;10.08;88.58;96967.09;4970835;28;19925;-78
2022/11/02 05:52:52;;;;;;;;;;;;;;;10.03;88.68;96968.00;4970677;28;20304;-77
2022/11/02 05:55:19;;;;;;;;;;;;;;;9.99;88.61;96966.97;4973082;28;19953;-77
2022/11/02 05:57:49;;;;;;;;;;;;;;;9.96;88.82;96975.72;4974191;28;19993;-77
2022/11/02 06:00:16;;;;;;;;;;;;;;;9.95;89.20;96968.69;4955640;28;19922;-77
2022/11/02 06:02:43;;;;;;;;;;;;;;;9.94;89.46;96962.44;4972917;28;19928;-78
2022/11/02 06:05:11;;;;;;;;;;;;;;;9.93;89.23;96965.47;4973289;28;19928;-77
2022/11/02 06:07:37;;;;;;;;;;;;;;;9.90;89.38;96966.03;4973849;28;19976;-78
2022/11/02 06:10:04;;;;;;;;;;;;;;;9.84;89.52;96967.25;4973257;28;19922;-78
2022/11/02 06:12:31;;;;;;;;;;;;;;;9.83;89.90;96968.34;4955900;28;19922;-76
2022/11/02 06:14:57;;;;;;;;;;;;;;;9.83;90.15;96971.06;4954727;29;19922;-77
2022/11/02 06:17:24;;;;;;;;;;;;;;;9.86;90.46;96981.34;4954486;28;19934;-78
2022/11/02 06:19:50;;;;;;;;;;;;;;;9.90;90.86;96977.72;4973389;28;20436;-77
2022/11/02 06:22:18;;;;;;;;;;;;;;;9.92;90.57;96985.63;4971840;28;19922;-77
2022/11/02 06:24:45;;;;;;;;;;;;;;;9.90;90.03;96988.59;4973520;28;19929;-78
2022/11/02 06:27:11;;;;;;;;;;;;;;;9.90;89.86;96993.25;4973350;28;19922;-78
2022/11/02 06:29:38;;;;;;;;;;;;;;;9.89;90.00;96986.19;4972839;28;20001;-77
2022/11/02 06:32:04;;;;;;;;;;;;;;;9.88;90.37;96998.19;4974199;28;19922;-77
2022/11/02 06:34:31;;;;;;;;;;;;;;;9.87;90.56;96999.31;4974143;28;20320;-75
2022/11/02 06:36:58;;;;;;;;;;;;;;;9.86;90.56;96998.47;4954254;29;20009;-75
2022/11/02 06:39:26;;;;;;;;;;;;;;;9.91;90.75;97000.28;4952550;29;19929;-75
2022/11/02 06:41:52;;;;;;;;;;;;;;;9.96;90.79;96999.41;4957653;28;19929;-74
2022/11/02 06:44:19;;;;;;;;;;;;;;;9.98;90.82;97005.38;4976870;28;19922;-78
2022/11/02 06:46:46;;;;;;;;;;;;;;;9.98;92.24;97006.19;4986590;28;19985;-78
2022/11/02 06:49:13;;;;;;;;;;;;;;;10.04;92.47;97012.34;4985836;28;19929;-79
2022/11/02 06:51:40;;;;;;;;;;;;;;;10.11;92.20;97015.47;4969761;28;19950;-78
2022/11/02 06:54:06;;;;;;;;;;;;;;;10.23;92.05;97015.00;4981568;28;19928;-78
2022/11/02 06:56:34;;;;;;;;;;;;;;;10.30;92.07;97018.97;4975667;28;20377;-78
2022/11/02 06:59:01;;;;;;;;;;;;;;;10.37;92.16;97024.84;4974561;28;20008;-79
2022/11/02 07:01:28;;;;;;;;;;;;;;;10.38;92.52;97023.72;4972612;28;19922;-78
2022/11/02 07:03:54;;;;;;;;;;;;;;;10.61;92.16;97023.88;4974096;28;19922;-78
2022/11/02 07:06:21;;;;;;;;;;;;;;;10.73;91.73;97036.97;4974499;28;20367;-78
2022/11/02 07:08:47;;;;;;;;;;;;;;;10.82;91.37;97035.19;4993806;28;19922;-78
2022/11/02 07:11:14;;;;;;;;;;;;;;;10.91;91.19;97041.50;4993170;28;19964;-78
2022/11/02 07:13:42;;;;;;;;;;;;;;;10.92;90.91;97041.22;4980785;28;19922;-78
2022/11/02 07:16:09;;;;;;;;;;;;;;;11.02;90.58;97044.88;4973784;28;19922;-78
2022/11/02 07:18:36;;;;;;;;;;;;;;;11.09;90.12;97046.06;4975364;28;20329;-78
2022/11/02 07:21:02;;;;;;;;;;;;;;;11.16;90.03;97051.91;4974348;28;20009;-79
2022/11/02 07:23:29;;;;;;;;;;;;;;;11.13;90.08;97052.53;4973804;28;19922;-78
2022/11/02 07:25:55;;;;;;;;;;;;;;;11.29;89.59;97046.75;4973857;28;20285;-79
2022/11/02 07:28:22;;;;;;;;;;;;;;;11.41;89.46;97047.03;4973916;28;20017;-78
2022/11/02 07:30:53;;;;;;;;;;;;;;;11.47;89.19;97046.59;4973380;28;19965;-78
2022/11/02 07:33:19;;;;;;;;;;;;;;;11.52;89.27;97042.16;4972915;28;19922;-78
2022/11/02 07:35:46;;;;;;;;;;;;;;;11.65;88.85;97039.41;4973500;28;20065;-78
2022/11/02 07:38:12;;;;;;;;;;;;;;;11.81;88.09;97039.03;4972761;28;19957;-78
2022/11/02 07:40:39;;;;;;;;;;;;;;;11.97;88.11;97043.03;4973472;28;19922;-78
2022/11/02 07:43:06;;;;;;;;;;;;;;;12.10;88.01;97036.69;4972282;28;20013;-79
2022/11/02 07:45:32;;;;;;;;;;;;;;;12.15;87.57;97033.84;4973501;28;19997;-77
2022/11/02 07:48:00;;;;;;;;;;;;;;;12.31;87.24;97044.38;4973499;28;20025;-78
2022/11/02 07:50:27;;;;;;;;;;;;;;;12.49;86.79;97046.09;4973219;28;20292;-78
2022/11/02 07:52:54;;;;;;;;;;;;;;;12.64;86.58;97045.72;4972997;28;19968;-78
2022/11/02 07:55:22;;;;;;;;;;;;;;;12.54;82.22;97049.50;4972950;28;20008;-78
2022/11/02 07:57:54;;;;;;;;;;;;;;;12.70;81.43;97044.44;4973065;28;20008;-78
2022/11/02 08:00:21;;;;;;;;;;;;;;;12.85;79.50;97050.63;4972887;28;20323;-78
2022/11/02 08:02:47;;;;;;;;;;;;;;;12.81;79.48;97050.44;4972799;28;19921;-78
2022/11/02 08:05:15;;;;;;;;;;;;;;;12.80;80.26;97057.84;4972461;28;19929;-78
2022/11/02 08:07:42;;;;;;;;;;;;;;;12.95;79.43;97047.59;4974238;28;20036;-78
2022/11/02 08:10:08;;;;;;;;;;;;;;;13.26;77.77;97045.66;4976561;28;20549;-78
2022/11/02 08:12:35;;;;;;;;;;;;;;;13.60;76.07;97046.81;4973861;28;19970;-79
2022/11/02 08:15:01;;;;;;;;;;;;;;;13.85;75.10;97050.69;4977460;28;20292;-79
2022/11/02 08:17:28;;;;;;;;;;;;;;;13.30;76.02;97063.00;4978185;28;20399;-77
2022/11/02 08:19:54;;;;;;;;;;;;;;;13.67;76.29;97062.75;4980705;28;20385;-79
2022/11/02 08:22:22;;;;;;;;;;;;;;;13.38;75.64;97061.44;4993755;28;19953;-79
2022/11/02 08:24:48;;;;;;;;;;;;;;;13.50;75.43;97060.81;4989796;28;20381;-78
2022/11/02 08:27:14;;;;;;;;;;;;;;;13.44;75.67;97073.03;4985180;28;19981;-79
2022/11/02 08:29:41;;;;;;;;;;;;;;;13.18;75.83;97071.00;4992941;28;19949;-79
2022/11/02 08:32:07;;;;;;;;;;;;;;;13.14;76.69;97070.00;4986268;28;20006;-78
2022/11/02 08:34:34;;;;;;;;;;;;;;;13.20;76.15;97076.13;4980805;28;19929;-79
2022/11/02 08:37:00;;;;;;;;;;;;;;;13.47;77.20;97067.72;4978471;28;20463;-79
2022/11/02 08:39:28;;;;;;;;;;;;;;;13.37;75.75;97067.22;4976579;28;20008;-79
2022/11/02 08:41:55;;;;;;;;;;;;;;;13.56;75.23;97057.59;4977274;28;20691;-78
2022/11/02 08:44:24;;;;;;;;;;;;;;;13.68;75.10;97054.25;4975886;28;19930;-77
2022/11/02 08:46:50;;;;;;;;;;;;;;;13.74;74.41;97060.34;4977012;28;19922;-77
2022/11/02 08:49:18;;;;;;;;;;;;;;;13.86;74.13;97062.44;4938866;29;19929;-80
2022/11/02 08:51:45;;;;;;;;;;;;;;;13.81;74.47;97057.94;4939453;29;19950;-78
2022/11/02 08:54:11;;;;;;;;;;;;;;;14.00;73.60;97052.16;4937032;29;20268;-78
2022/11/02 08:56:39;;;;;;;;;;;;;;;14.16;74.60;97056.00;4938020;29;20335;-79
2022/11/02 08:59:06;;;;;;;;;;;;;;;14.16;73.91;97066.97;4937123;29;19950;-78
2022/11/02 09:01:32;;;;;;;;;;;;;;;13.83;75.03;97059.25;4938582;29;19923;-79
2022/11/02 09:03:59;;;;;;;;;;;;;;;13.54;75.13;97056.31;4937387;29;20297;-78
2022/11/02 09:06:25;;;;;;;;;;;;;;;13.47;75.40;97055.97;4938288;29;19923;-79
2022/11/02 09:08:52;;;;;;;;;;;;;;;13.81;75.11;97056.00;4942318;29;19997;-80
2022/11/02 09:11:18;;;;;;;;;;;;;;;14.07;75.44;97057.94;4951449;29;19978;-78
2022/11/02 09:13:46;;;;;;;;;;;;;;;13.92;75.77;97059.22;4942379;29;19954;-79
2022/11/02 09:16:12;;;;;;;;;;;;;;;14.21;74.37;97064.06;4939122;29;20293;-79
2022/11/02 09:18:39;;;;;;;;;;;;;;;14.24;73.07;97057.91;4940138;29;19923;-78
2022/11/02 09:21:06;;;;;;;;;;;;;;;14.29;74.51;97059.69;4938856;29;20015;-78
2022/11/02 09:23:32;;;;;;;;;;;;;;;14.49;73.25;97069.19;4939883;29;20018;-78
2022/11/02 09:25:58;;;;;;;;;;;;;;;14.80;70.15;97067.00;4939842;29;20057;-80
2022/11/02 09:28:25;;;;;;;;;;;;;;;15.02;67.69;97060.47;4938856;29;19929;-78
2022/11/02 09:30:53;;;;;;;;;;;;;;;14.79;65.87;97070.88;4939887;29;20017;-78
2022/11/02 09:33:19;;;;;;;;;;;;;;;14.59;66.51;97068.84;4939121;29;19929;-77
2022/11/02 09:35:47;;;;;;;;;;;;;;;14.44;66.41;97066.59;4940337;29;19986;-79
2022/11/02 09:38:14;;;;;;;;;;;;;;;14.07;68.46;97075.16;4938454;29;20497;-78
2022/11/02 09:40:43;;;;;;;;;;;;;;;14.28;68.75;97080.00;4939483;29;20294;-78
2022/11/02 09:43:16;;;;;;;;;;;;;;;14.22;68.35;97087.56;4939348;29;19957;-79
2022/11/02 09:45:49;;;;;;;;;;;;;;;14.42;69.02;97083.38;4941151;29;19927;-78
2022/11/02 09:48:18;;;;;;;;;;;;;;;14.12;68.63;97093.38;4951484;29;19994;-79
2022/11/02 09:50:48;;;;;;;;;;;;;;;14.21;67.54;97088.72;4959717;29;19923;-78
2022/11/02 09:53:18;;;;;;;;;;;;;;;14.28;69.38;97091.75;4957846;29;20020;-79
2022/11/02 09:55:49;;;;;;;;;;;;;;;14.10;69.36;97101.94;4958101;29;19924;-79
2022/11/02 09:58:18;;;;;;;;;;;;;;;14.02;69.33;97099.19;4958040;29;19938;-80
2022/11/02 10:00:47;;;;;;;;;;;;;;;13.87;70.40;97102.38;4959249;29;19922;-78
2022/11/02 10:03:20;;;;;;;;;;;;;;;13.80;69.75;97103.66;4956550;29;20582;-79
2022/11/02 10:05:51;;;;;;;;;;;;;;;13.90;70.06;97101.75;4957922;29;20017;-78
2022/11/02 10:08:36;;;;;;;;;;;;;;;13.78;69.17;97103.19;4956418;29;20373;-78
2022/11/02 10:11:08;;;;;;;;;;;;;;;13.74;70.25;97110.44;4950760;29;20005;-78
2022/11/02 10:13:38;;;;;;;;;;;;;;;13.66;70.17;97104.94;4954671;28;20348;-78
2022/11/02 10:16:08;;;;;;;;;;;;;;;13.89;70.33;97106.44;4956990;28;19922;-79
2022/11/02 10:18:36;;;;;;;;;;;;;;;13.89;71.02;97102.88;4957384;28;19923;-78
2022/11/02 10:21:06;;;;;;;;;;;;;;;13.86;69.52;97098.03;4957420;28;19922;-79
2022/11/02 10:23:34;;;;;;;;;;;;;;;14.13;69.67;97094.19;4957904;28;19977;-80
2022/11/02 10:26:02;;;;;;;;;;;;;;;14.45;67.90;97095.59;4957516;28;19926;-79
2022/11/02 10:28:31;;;;;;;;;;;;;;;14.72;67.54;97091.69;4956299;28;20417;-79
2022/11/02 10:30:57;;;;;;;;;;;;;;;15.04;64.58;97098.56;4955193;28;19926;-79
2022/11/02 10:33:26;;;;;;;;;;;;;;;15.25;64.88;97106.84;4955514;28;19922;-78
2022/11/02 10:35:57;;;;;;;;;;;;;;;15.01;64.80;97107.44;4956908;28;19931;-79
2022/11/02 10:38:29;;;;;;;;;;;;;;;14.90;65.27;97117.16;4955635;28;20277;-79
2022/11/02 10:41:05;;;;;;;;;;;;;;;14.85;64.22;97099.72;4956007;28;19929;-78
2022/11/02 10:43:36;;;;;;;;;;;;;;;14.35;65.25;97108.53;4955667;28;19922;-77
2022/11/02 10:46:10;;;;;;;;;;;;;;;14.59;66.74;97102.53;4955447;29;20400;-77
2022/11/02 10:48:40;;;;;;;;;;;;;;;14.27;65.64;97101.09;4955120;29;19929;-78
2022/11/02 10:51:09;;;;;;;;;;;;;;;14.47;64.98;97098.84;4955031;29;19929;-79
2022/11/02 10:53:40;;;;;;;;;;;;;;;14.47;65.44;97105.16;4956400;29;19922;-78
2022/11/02 10:56:10;;;;;;;;;;;;;;;14.15;66.45;97103.69;4955120;29;19954;-78
2022/11/02 10:58:40;;;;;;;;;;;;;;;14.60;68.61;97089.63;4956093;29;19929;-78
2022/11/02 11:01:07;;;;;;;;;;;;;;;14.78;64.80;97099.44;4954332;29;19933;-79
2022/11/02 11:03:33;;;;;;;;;;;;;;;14.92;65.06;97101.16;4954933;29;20017;-78
2022/11/02 11:06:01;;;;;;;;;;;;;;;15.46;65.17;97104.19;4955425;29;19953;-78
2022/11/02 11:08:35;;;;;;;;;;;;;;;15.75;60.60;97104.19;4954661;29;19922;-79
2022/11/02 11:11:29;;;;;;;;;;;;;;;15.54;61.65;97097.81;4954286;29;20409;-79
2022/11/02 11:13:57;;;;;;;;;;;;;;;15.33;61.79;97093.06;4921269;28;19957;-78
2022/11/02 11:16:34;;;;;;;;;;;;;;;15.44;60.36;97096.25;4954826;29;20018;-78
2022/11/02 11:19:01;;;;;;;;;;;;;;;15.04;61.91;97090.31;4948335;29;20039;-78
2022/11/02 11:21:35;;;;;;;;;;;;;;;15.28;60.40;97092.47;4955608;29;19922;-77
2022/11/02 11:24:18;;;;;;;;;;;;;;;15.31;60.94;97095.34;4955115;29;19930;-79
2022/11/02 11:26:45;;;;;;;;;;;;;;;15.07;62.37;97095.13;4955355;29;19954;-78
2022/11/02 11:29:21;;;;;;;;;;;;;;;15.23;61.27;97093.44;4954270;29;19922;-78
2022/11/02 11:31:47;;;;;;;;;;;;;;;15.32;60.72;97088.72;4955920;29;19958;-78
2022/11/02 11:34:22;;;;;;;;;;;;;;;15.25;61.06;97093.16;4954190;29;19922;-78
2022/11/02 11:36:49;;;;;;;;;;;;;;;15.34;59.82;97083.72;4954449;29;19923;-80
2022/11/02 11:39:24;;;;;;;;;;;;;;;15.16;59.72;97086.88;4954556;29;20065;-78
2022/11/02 11:41:50;;;;;;;;;;;;;;;15.17;62.00;97086.53;4956301;28;20317;-78
2022/11/02 11:44:17;;;;;;;;;;;;;;;14.73;61.92;97088.66;4956284;29;19990;-78
2022/11/02 11:46:45;;;;;;;;;;;;;;;14.72;62.48;97086.22;4959584;29;19969;-78
2022/11/02 11:49:19;;;;;;;;;;;;;;;14.77;61.70;97081.38;4958046;29;19969;-79
2022/11/02 11:51:50;;;;;;;;;;;;;;;14.77;60.82;97084.13;4959130;29;19922;-80
2022/11/02 11:54:22;;;;;;;;;;;;;;;14.35;62.22;97077.56;4958023;29;19928;-78
2022/11/02 11:56:49;;;;;;;;;;;;;;;14.35;62.20;97074.81;4959057;29;19929;-78
2022/11/02 11:59:20;;;;;;;;;;;;;;;14.38;62.58;97076.91;4958491;29;19998;-79
2022/11/02 12:01:46;;;;;;;;;;;;;;;14.26;62.33;97080.31;4959313;29;19962;-78
2022/11/02 12:04:12;;;;;;;;;;;;;;;14.14;62.98;97079.34;4958781;29;20013;-79
2022/11/02 12:06:41;;;;;;;;;;;;;;;14.22;64.20;97082.09;4959865;29;20263;-78
2022/11/02 12:09:12;;;;;;;;;;;;;;;14.12;63.86;97087.09;4952372;28;19929;-79
2022/11/02 12:11:47;;;;;;;;;;;;;;;14.21;63.48;97072.28;4958668;29;19929;-79
2022/11/02 12:14:20;;;;;;;;;;;;;;;14.14;64.30;97071.94;4955809;29;20404;-78
2022/11/02 12:17:04;;;;;;;;;;;;;;;14.36;64.46;97066.28;4960140;29;19926;-78
2022/11/02 12:19:37;;;;;;;;;;;;;;;14.51;63.63;97061.44;4959505;29;19922;-79
2022/11/02 12:22:10;;;;;;;;;;;;;;;14.66;64.87;97066.41;4959648;29;20365;-78
2022/11/02 12:24:45;;;;;;;;;;;;;;;14.80;62.27;97061.53;4959354;29;19954;-79
2022/11/02 12:27:22;;;;;;;;;;;;;;;14.59;62.73;97063.38;4958566;29;20013;-78
2022/11/02 12:29:56;;;;;;;;;;;;;;;14.61;63.14;97050.13;4958997;29;19922;-79
2022/11/02 12:32:29;;;;;;;;;;;;;;;14.79;61.26;97054.44;4958344;29;19977;-79
2022/11/02 12:35:08;;;;;;;;;;;;;;;14.90;60.75;97057.63;4958263;29;19922;-79
2022/11/02 12:37:42;;;;;;;;;;;;;;;14.77;61.17;97053.97;4957416;29;19922;-79
2022/11/02 12:40:18;;;;;;;;;;;;;;;14.68;61.91;97050.44;4958189;29;19928;-78
2022/11/02 12:42:51;;;;;;;;;;;;;;;14.64;61.90;97051.44;4956548;29;19922;-78
2022/11/02 12:45:23;;;;;;;;;;;;;;;14.65;61.68;97039.31;4959292;28;19922;-78
2022/11/02 12:47:55;;;;;;;;;;;;;;;14.88;60.95;97051.69;4960780;28;19993;-78
2022/11/02 12:50:25;;;;;;;;;;;;;;;14.81;61.15;97048.63;4958621;28;20173;-78
2022/11/02 12:52:58;;;;;;;;;;;;;;;14.70;60.08;97045.44;4960830;28;20389;-79
2022/11/02 12:55:29;;;;;;;;;;;;;;;14.84;60.10;97042.50;4958660;28;19950;-79
2022/11/02 12:57:59;;;;;;;;;;;;;;;14.75;59.72;97045.25;4958838;28;20029;-78
2022/11/02 13:00:28;;;;;;;;;;;;;;;14.88;60.08;97043.44;4957765;28;19922;-78
2022/11/02 13:02:57;;;;;;;;;;;;;;;14.85;59.79;97038.59;4958481;28;19923;-79
2022/11/02 13:05:26;;;;;;;;;;;;;;;14.58;59.27;97048.84;4957731;28;20008;-78